createdAt,value
2018-09-09T00:01:56.809Z,16.20
2018-09-09T00:04:24.533Z,16.20
2018-09-09T00:06:52.304Z,16.20
2018-09-09T00:09:25.896Z,16.10
2018-09-09T00:11:53.685Z,15.70
2018-09-09T00:14:21.560Z,16.00
2018-09-09T00:16:49.286Z,16.00
2018-09-09T00:19:17.045Z,16.20
2018-09-09T00:21:44.802Z,16.40
2018-09-09T00:24:12.607Z,16.20
2018-09-09T00:26:40.507Z,16.20
2018-09-09T00:29:08.246Z,16.10
2018-09-09T00:31:36.015Z,16.00
2018-09-09T00:34:03.778Z,16.10
2018-09-09T00:36:31.555Z,16.10
2018-09-09T00:38:59.397Z,16.30
2018-09-09T00:41:27.117Z,16.30
2018-09-09T00:43:55.192Z,16.20
2018-09-09T00:46:22.982Z,16.10
2018-09-09T00:49:53.999Z,16.60
2018-09-09T00:52:27.528Z,16.00
2018-09-09T00:54:55.265Z,16.60
2018-09-09T00:57:23.104Z,16.40
2018-09-09T00:59:50.820Z,16.20
2018-09-09T01:02:18.572Z,16.20
2018-09-09T01:04:46.296Z,16.20
2018-09-09T01:07:14.056Z,16.20
2018-09-09T01:09:41.817Z,16.30
2018-09-09T01:12:09.564Z,16.20
2018-09-09T01:14:37.314Z,16.40
2018-09-09T01:17:05.069Z,16.10
2018-09-09T01:19:32.900Z,16.10
2018-09-09T01:22:00.623Z,16.60
2018-09-09T01:24:28.346Z,16.50
2018-09-09T01:26:56.080Z,16.30
2018-09-09T01:29:23.816Z,16.30
2018-09-09T01:31:51.552Z,16.30
2018-09-09T01:34:19.304Z,16.20
2018-09-09T01:36:47.028Z,16.20
2018-09-09T01:39:14.826Z,16.20
2018-09-09T01:41:42.543Z,16.20
2018-09-09T01:44:10.285Z,16.00
2018-09-09T01:46:38.012Z,16.10
2018-09-09T01:49:06.057Z,16.00
2018-09-09T01:51:33.760Z,16.10
2018-09-09T01:54:01.493Z,16.10
2018-09-09T01:56:29.217Z,16.00
2018-09-09T01:58:56.957Z,16.00
2018-09-09T02:01:24.712Z,15.90
2018-09-09T02:03:52.453Z,16.00
2018-09-09T02:06:20.187Z,15.60
2018-09-09T02:08:47.961Z,15.60
2018-09-09T02:11:15.749Z,15.60
2018-09-09T02:13:43.510Z,15.60
2018-09-09T02:16:11.248Z,16.00
2018-09-09T02:18:38.988Z,15.70
2018-09-09T02:21:06.699Z,15.50
2018-09-09T02:23:34.473Z,16.00
2018-09-09T02:26:02.356Z,15.60
2018-09-09T02:28:30.071Z,16.10
2018-09-09T02:30:57.899Z,15.90
2018-09-09T02:33:25.603Z,16.10
2018-09-09T02:35:53.339Z,16.00
2018-09-09T02:38:21.071Z,16.00
2018-09-09T02:40:48.803Z,16.20
2018-09-09T02:43:16.517Z,16.20
2018-09-09T02:45:44.279Z,15.90
2018-09-09T02:48:11.982Z,16.10
2018-09-09T02:50:39.720Z,15.60
2018-09-09T02:53:07.477Z,16.10
2018-09-09T02:55:39.721Z,15.60
2018-09-09T02:58:07.509Z,15.90
2018-09-09T03:00:35.237Z,16.10
2018-09-09T03:03:02.944Z,15.70
2018-09-09T03:05:30.680Z,15.60
2018-09-09T03:07:58.389Z,15.50
2018-09-09T03:10:26.108Z,15.50
2018-09-09T03:12:53.847Z,15.60
2018-09-09T03:15:21.558Z,15.40
2018-09-09T03:17:49.288Z,15.50
2018-09-09T03:20:16.992Z,15.70
2018-09-09T03:22:44.724Z,16.00
2018-09-09T03:25:12.441Z,15.70
2018-09-09T03:27:40.136Z,15.90
2018-09-09T03:30:07.888Z,15.60
2018-09-09T03:32:35.611Z,15.60
2018-09-09T03:35:03.556Z,15.40
2018-09-09T03:37:31.252Z,15.50
2018-09-09T03:39:58.986Z,15.50
2018-09-09T03:42:26.684Z,15.30
2018-09-09T03:44:54.454Z,15.60
2018-09-09T03:47:22.206Z,15.40
2018-09-09T03:49:49.925Z,15.50
2018-09-09T03:52:17.645Z,15.40
2018-09-09T03:54:45.440Z,15.40
2018-09-09T03:57:13.141Z,15.40
2018-09-09T03:59:40.873Z,15.30
2018-09-09T04:02:08.661Z,15.40
2018-09-09T04:04:36.392Z,15.10
2018-09-09T04:07:04.345Z,15.30
2018-09-09T04:09:32.070Z,15.60
2018-09-09T04:11:59.799Z,15.50
2018-09-09T04:14:27.511Z,15.50
2018-09-09T04:16:55.245Z,15.50
2018-09-09T04:19:22.967Z,15.40
2018-09-09T04:21:51.599Z,15.50
2018-09-09T04:24:20.522Z,15.10
2018-09-09T04:26:48.320Z,15.40
2018-09-09T04:29:16.146Z,15.60
2018-09-09T04:31:43.912Z,15.50
2018-09-09T04:34:11.748Z,15.60
2018-09-09T04:36:39.471Z,15.40
2018-09-09T04:39:10.053Z,15.60
2018-09-09T04:41:37.935Z,15.40
2018-09-09T04:44:05.700Z,15.50
2018-09-09T04:46:33.434Z,15.50
2018-09-09T04:49:01.140Z,15.50
2018-09-09T04:51:28.864Z,15.50
2018-09-09T04:53:56.589Z,15.50
2018-09-09T04:56:24.311Z,15.30
2018-09-09T04:58:52.021Z,15.00
2018-09-09T05:01:19.926Z,14.90
2018-09-09T05:03:47.676Z,15.20
2018-09-09T05:06:15.403Z,15.10
2018-09-09T05:08:43.132Z,15.10
2018-09-09T05:11:10.883Z,15.10
2018-09-09T05:13:38.585Z,15.00
2018-09-09T05:16:06.332Z,14.80
2018-09-09T05:18:34.088Z,14.90
2018-09-09T05:21:01.783Z,15.00
2018-09-09T05:23:29.538Z,14.90
2018-09-09T05:25:57.268Z,15.30
2018-09-09T05:28:24.996Z,15.00
2018-09-09T05:30:52.695Z,15.00
2018-09-09T05:33:20.407Z,14.90
2018-09-09T05:35:48.157Z,15.10
2018-09-09T05:38:15.865Z,15.30
2018-09-09T05:40:43.621Z,15.00
2018-09-09T05:43:11.413Z,15.50
2018-09-09T05:45:39.153Z,15.50
2018-09-09T05:48:06.853Z,15.60
2018-09-09T05:50:34.573Z,15.40
2018-09-09T05:53:02.307Z,15.40
2018-09-09T05:55:30.013Z,15.50
2018-09-09T05:57:57.738Z,15.50
2018-09-09T06:00:25.500Z,15.40
2018-09-09T06:02:53.242Z,15.80
2018-09-09T06:05:20.993Z,15.70
2018-09-09T06:07:48.764Z,15.60
2018-09-09T06:10:16.500Z,15.60
2018-09-09T06:12:44.233Z,15.80
2018-09-09T06:15:11.964Z,15.80
2018-09-09T06:17:39.701Z,16.10
2018-09-09T06:20:07.428Z,15.50
2018-09-09T06:22:35.207Z,16.00
2018-09-09T06:25:02.934Z,15.90
2018-09-09T06:27:30.667Z,16.00
2018-09-09T06:29:58.408Z,16.20
2018-09-09T06:32:26.144Z,16.20
2018-09-09T06:34:53.851Z,16.10
2018-09-09T06:37:21.623Z,16.20
2018-09-09T06:39:49.357Z,16.20
2018-09-09T06:42:17.084Z,16.10
2018-09-09T06:44:44.811Z,16.20
2018-09-09T06:47:12.560Z,16.70
2018-09-09T06:49:40.309Z,16.80
2018-09-09T06:52:08.022Z,16.70
2018-09-09T06:54:35.795Z,16.80
2018-09-09T06:57:03.513Z,16.60
2018-09-09T06:59:31.272Z,16.70
2018-09-09T07:01:59.048Z,16.90
2018-09-09T07:04:26.813Z,16.90
2018-09-09T07:06:54.541Z,17.00
2018-09-09T07:09:22.360Z,17.30
2018-09-09T07:11:50.277Z,17.30
2018-09-09T07:14:17.897Z,17.20
2018-09-09T07:16:45.626Z,17.20
2018-09-09T07:19:13.442Z,17.50
2018-09-09T07:21:41.084Z,17.60
2018-09-09T07:24:08.818Z,17.90
2018-09-09T07:26:36.590Z,17.80
2018-09-09T07:29:04.320Z,17.80
2018-09-09T07:31:32.048Z,17.40
2018-09-09T07:33:59.769Z,17.80
2018-09-09T07:36:27.490Z,18.00
2018-09-09T07:38:55.213Z,17.90
2018-09-09T07:41:22.966Z,18.40
2018-09-09T07:43:50.672Z,18.20
2018-09-09T07:46:18.412Z,18.30
2018-09-09T07:48:46.192Z,18.90
2018-09-09T07:51:13.945Z,18.80
2018-09-09T07:53:41.696Z,18.80
2018-09-09T07:56:09.437Z,19.20
2018-09-09T07:58:37.160Z,19.60
2018-09-09T08:01:05.046Z,18.80
2018-09-09T08:03:32.757Z,19.20
2018-09-09T08:06:00.485Z,19.90
2018-09-09T08:08:28.177Z,20.80
2018-09-09T08:10:55.920Z,21.70
2018-09-09T08:13:24.438Z,20.50
2018-09-09T08:15:52.165Z,20.50
2018-09-09T08:18:19.935Z,20.60
2018-09-09T08:20:47.629Z,21.00
2018-09-09T08:23:15.390Z,21.50
2018-09-09T08:25:43.197Z,21.70
2018-09-09T08:28:10.900Z,22.00
2018-09-09T08:30:38.640Z,22.60
2018-09-09T08:33:06.350Z,23.10
2018-09-09T08:35:34.069Z,23.00
2018-09-09T08:38:01.818Z,22.20
2018-09-09T08:40:29.529Z,22.30
2018-09-09T08:42:57.252Z,22.60
2018-09-09T08:45:25.057Z,23.60
2018-09-09T08:47:52.755Z,23.00
2018-09-09T08:50:20.569Z,23.40
2018-09-09T08:52:48.306Z,24.80
2018-09-09T08:55:16.018Z,23.80
2018-09-09T08:57:43.796Z,23.50
2018-09-09T09:00:11.509Z,23.80
2018-09-09T09:02:39.227Z,23.20
2018-09-09T09:05:06.988Z,23.40
2018-09-09T09:07:34.810Z,23.30
2018-09-09T09:10:02.560Z,24.40
2018-09-09T09:12:30.257Z,25.60
2018-09-09T09:14:58.028Z,25.80
2018-09-09T09:17:25.725Z,25.20
2018-09-09T09:19:53.455Z,26.60
2018-09-09T09:22:21.179Z,27.80
2018-09-09T09:24:48.921Z,28.10
2018-09-09T09:27:16.639Z,28.70
2018-09-09T09:29:49.841Z,27.70
2018-09-09T09:32:21.839Z,29.50
2018-09-09T09:34:49.673Z,29.60
2018-09-09T09:37:17.803Z,29.40
2018-09-09T09:39:45.536Z,30.50
2018-09-09T09:42:13.305Z,30.50
2018-09-09T09:44:41.706Z,28.50
2018-09-09T09:47:09.445Z,27.80
2018-09-09T09:49:37.244Z,26.80
2018-09-09T09:52:04.988Z,28.00
2018-09-09T09:54:32.733Z,29.70
2018-09-09T09:57:00.490Z,30.90
2018-09-09T09:59:28.220Z,31.20
2018-09-09T10:01:55.976Z,31.40
2018-09-09T10:04:23.731Z,30.90
2018-09-09T10:06:51.589Z,30.40
2018-09-09T10:09:19.341Z,32.30
2018-09-09T10:11:47.132Z,33.00
2018-09-09T10:14:14.863Z,32.10
2018-09-09T10:16:42.621Z,31.40
2018-09-09T10:19:10.396Z,32.00
2018-09-09T10:21:38.102Z,32.60
2018-09-09T10:24:05.910Z,32.70
2018-09-09T10:26:33.693Z,31.90
2018-09-09T10:29:01.752Z,32.70
2018-09-09T10:31:29.484Z,32.80
2018-09-09T10:33:57.246Z,32.70
2018-09-09T10:36:25.010Z,32.20
2018-09-09T10:38:52.740Z,32.10
2018-09-09T10:41:20.511Z,31.40
2018-09-09T10:43:48.340Z,31.30
2018-09-09T10:46:16.203Z,30.00
2018-09-09T10:48:43.880Z,28.10
2018-09-09T10:51:11.704Z,28.40
2018-09-09T10:53:39.524Z,27.90
2018-09-09T10:56:07.319Z,28.80
2018-09-09T10:58:35.117Z,29.60
2018-09-09T11:01:02.977Z,30.20
2018-09-09T11:03:30.766Z,30.30
2018-09-09T11:05:58.542Z,32.40
2018-09-09T11:08:26.261Z,33.80
2018-09-09T11:10:54.070Z,32.50
2018-09-09T11:13:21.836Z,31.10
2018-09-09T11:15:49.565Z,30.80
2018-09-09T11:18:17.438Z,30.70
2018-09-09T11:20:45.194Z,30.90
2018-09-09T11:23:12.931Z,30.80
2018-09-09T11:25:40.697Z,31.40
2018-09-09T11:28:08.443Z,30.00
2018-09-09T11:30:36.193Z,29.80
2018-09-09T11:33:04.054Z,30.40
2018-09-09T11:35:31.805Z,31.30
2018-09-09T11:37:59.561Z,31.70
2018-09-09T11:40:27.345Z,31.60
2018-09-09T11:42:55.109Z,31.60
2018-09-09T11:45:22.894Z,32.50
2018-09-09T11:47:50.709Z,31.60
2018-09-09T11:50:18.489Z,30.40
2018-09-09T11:52:46.219Z,30.80
2018-09-09T11:55:14.064Z,29.70
2018-09-09T11:57:41.892Z,29.60
2018-09-09T12:00:09.704Z,30.30
2018-09-09T12:02:37.503Z,31.00
2018-09-09T12:05:05.329Z,31.70
2018-09-09T12:07:33.122Z,32.10
2018-09-09T12:10:00.881Z,32.10
2018-09-09T12:12:28.624Z,31.50
2018-09-09T12:14:57.361Z,31.20
2018-09-09T12:17:25.097Z,30.80
2018-09-09T12:19:52.812Z,31.10
2018-09-09T12:22:20.504Z,31.80
2018-09-09T12:24:48.503Z,32.10
2018-09-09T12:27:16.164Z,33.40
2018-09-09T12:29:43.883Z,32.20
2018-09-09T12:32:11.647Z,32.80
2018-09-09T12:34:39.357Z,32.30
2018-09-09T12:37:07.150Z,32.50
2018-09-09T12:39:34.990Z,32.80
2018-09-09T12:42:02.689Z,32.30
2018-09-09T12:44:36.121Z,31.90
2018-09-09T12:47:09.747Z,31.90
2018-09-09T12:49:37.517Z,31.80
2018-09-09T12:52:05.281Z,30.60
2018-09-09T12:54:33.004Z,30.40
2018-09-09T12:57:00.741Z,29.40
2018-09-09T12:59:28.529Z,30.00
2018-09-09T13:01:56.199Z,30.10
2018-09-09T13:04:23.967Z,29.90
2018-09-09T13:06:51.742Z,30.00
2018-09-09T13:09:19.513Z,29.30
2018-09-09T13:11:47.289Z,29.30
2018-09-09T13:14:14.978Z,29.10
2018-09-09T13:16:42.736Z,28.60
2018-09-09T13:19:10.464Z,28.80
2018-09-09T13:21:38.389Z,28.20
2018-09-09T13:24:06.133Z,27.20
2018-09-09T13:26:33.903Z,27.60
2018-09-09T13:29:01.633Z,27.70
2018-09-09T13:31:29.384Z,27.70
2018-09-09T13:33:57.640Z,27.70
2018-09-09T13:36:25.376Z,28.00
2018-09-09T13:38:53.264Z,28.90
2018-09-09T13:41:21.066Z,29.10
2018-09-09T13:43:49.716Z,29.00
2018-09-09T13:46:17.477Z,28.40
2018-09-09T13:48:45.248Z,28.50
2018-09-09T13:51:13.025Z,29.00
2018-09-09T13:53:40.793Z,29.20
2018-09-09T13:56:08.563Z,28.60
2018-09-09T13:58:36.341Z,29.40
2018-09-09T14:01:04.136Z,29.70
2018-09-09T14:03:31.956Z,29.20
2018-09-09T14:05:59.751Z,28.90
2018-09-09T14:08:27.812Z,28.80
2018-09-09T14:10:55.594Z,27.90
2018-09-09T14:13:23.362Z,28.40
2018-09-09T14:15:51.151Z,28.80
2018-09-09T14:18:18.914Z,28.90
2018-09-09T14:20:46.656Z,29.80
2018-09-09T14:23:14.455Z,29.40
2018-09-09T14:25:42.236Z,29.70
2018-09-09T14:28:10.658Z,27.90
2018-09-09T14:30:38.409Z,27.70
2018-09-09T14:33:06.147Z,27.90
2018-09-09T14:35:33.948Z,28.60
2018-09-09T14:38:01.700Z,28.10
2018-09-09T14:40:29.569Z,27.60
2018-09-09T14:42:57.247Z,27.70
2018-09-09T14:45:24.993Z,27.00
2018-09-09T14:47:52.760Z,27.60
2018-09-09T14:50:20.532Z,27.40
2018-09-09T14:52:48.301Z,27.00
2018-09-09T14:55:16.044Z,26.70
2018-09-09T14:57:43.776Z,27.20
2018-09-09T15:00:12.789Z,27.20
2018-09-09T15:02:40.542Z,27.30
2018-09-09T15:05:08.337Z,27.10
2018-09-09T15:07:36.100Z,27.30
2018-09-09T15:10:04.012Z,27.20
2018-09-09T15:12:31.801Z,26.80
2018-09-09T15:14:59.571Z,27.20
2018-09-09T15:17:27.371Z,27.20
2018-09-09T15:19:55.133Z,27.40
2018-09-09T15:22:22.971Z,27.20
2018-09-09T15:24:50.732Z,26.70
2018-09-09T15:27:18.516Z,26.60
2018-09-09T15:29:46.314Z,26.20
2018-09-09T15:32:14.088Z,25.90
2018-09-09T15:34:41.846Z,25.60
2018-09-09T15:37:09.656Z,26.40
2018-09-09T15:39:37.397Z,26.70
2018-09-09T15:42:04.857Z,26.60
2018-09-09T15:44:32.627Z,26.90
2018-09-09T15:47:00.553Z,27.00
2018-09-09T15:49:28.438Z,26.90
2018-09-09T15:51:56.303Z,26.70
2018-09-09T15:54:24.062Z,26.60
2018-09-09T15:56:51.829Z,26.40
2018-09-09T15:59:19.565Z,26.60
2018-09-09T16:01:47.351Z,26.30
2018-09-09T16:04:15.108Z,26.40
2018-09-09T16:06:42.898Z,26.10
2018-09-09T16:09:11.226Z,26.20
2018-09-09T16:11:39.155Z,26.30
2018-09-09T16:14:07.124Z,26.50
2018-09-09T16:16:34.883Z,26.20
2018-09-09T16:19:02.779Z,26.30
2018-09-09T16:21:30.516Z,26.60
2018-09-09T16:23:58.303Z,26.10
2018-09-09T16:26:26.147Z,26.20
2018-09-09T16:28:53.908Z,26.20
2018-09-09T16:31:21.716Z,26.20
2018-09-09T16:33:49.471Z,26.20
2018-09-09T16:36:17.237Z,26.20
2018-09-09T16:38:45.010Z,26.10
2018-09-09T16:41:12.772Z,26.10
2018-09-09T16:43:40.560Z,25.90
2018-09-09T16:46:08.329Z,25.80
2018-09-09T16:48:36.580Z,25.70
2018-09-09T16:51:04.424Z,25.50
2018-09-09T16:53:32.181Z,25.50
2018-09-09T16:56:00.006Z,25.40
2018-09-09T16:58:27.731Z,25.30
2018-09-09T17:00:55.517Z,25.30
2018-09-09T17:03:23.300Z,25.30
2018-09-09T17:05:51.012Z,25.30
2018-09-09T17:08:18.766Z,25.00
2018-09-09T17:10:46.465Z,25.10
2018-09-09T17:13:14.190Z,24.80
2018-09-09T17:15:41.956Z,24.80
2018-09-09T17:18:09.693Z,24.80
2018-09-09T17:20:37.442Z,24.60
2018-09-09T17:23:05.152Z,24.50
2018-09-09T17:25:32.888Z,24.60
2018-09-09T17:28:00.643Z,24.60
2018-09-09T17:30:28.372Z,24.30
2018-09-09T17:32:56.051Z,24.20
2018-09-09T17:35:23.757Z,23.80
2018-09-09T17:37:51.508Z,24.00
2018-09-09T17:40:19.217Z,23.90
2018-09-09T17:42:46.925Z,23.80
2018-09-09T17:45:14.631Z,23.10
2018-09-09T17:47:42.359Z,23.10
2018-09-09T17:50:10.057Z,23.50
2018-09-09T17:52:37.786Z,23.20
2018-09-09T17:55:05.652Z,22.80
2018-09-09T17:57:33.425Z,23.00
2018-09-09T18:00:01.189Z,23.20
2018-09-09T18:02:28.929Z,23.00
2018-09-09T18:04:56.620Z,22.40
2018-09-09T18:07:24.354Z,22.80
2018-09-09T18:09:52.089Z,22.30
2018-09-09T18:12:19.823Z,22.20
2018-09-09T18:14:47.593Z,21.80
2018-09-09T18:17:15.317Z,22.10
2018-09-09T18:19:43.065Z,22.00
2018-09-09T18:22:10.888Z,22.10
2018-09-09T18:24:38.646Z,21.40
2018-09-09T18:27:06.397Z,21.90
2018-09-09T18:29:34.246Z,21.50
2018-09-09T18:32:01.972Z,21.80
2018-09-09T18:34:29.707Z,21.40
2018-09-09T18:36:57.485Z,21.30
2018-09-09T18:39:25.242Z,21.20
2018-09-09T18:41:53.005Z,21.30
2018-09-09T18:44:20.754Z,21.20
2018-09-09T18:46:48.532Z,21.10
2018-09-09T18:49:16.273Z,21.00
2018-09-09T18:51:44.038Z,21.30
2018-09-09T18:54:11.875Z,21.00
2018-09-09T18:56:39.698Z,21.10
2018-09-09T18:59:07.453Z,21.20
2018-09-09T19:01:35.230Z,21.00
2018-09-09T19:04:03.042Z,20.40
2018-09-09T19:06:30.787Z,20.60
2018-09-09T19:08:58.632Z,20.70
2018-09-09T19:11:26.386Z,20.70
2018-09-09T19:13:54.222Z,20.40
2018-09-09T19:16:21.999Z,20.70
2018-09-09T19:18:49.760Z,20.50
2018-09-09T19:21:17.489Z,20.20
2018-09-09T19:23:45.257Z,20.30
2018-09-09T19:26:13.034Z,20.20
2018-09-09T19:28:40.788Z,20.20
2018-09-09T19:31:08.535Z,20.30
2018-09-09T19:33:36.334Z,20.20
2018-09-09T19:36:04.066Z,20.30
2018-09-09T19:38:31.828Z,20.40
2018-09-09T19:40:59.576Z,20.30
2018-09-09T19:43:27.443Z,20.10
2018-09-09T19:45:55.181Z,20.10
2018-09-09T19:48:23.184Z,20.20
2018-09-09T19:50:50.940Z,19.90
2018-09-09T19:53:18.706Z,19.90
2018-09-09T19:55:46.497Z,19.90
2018-09-09T19:58:14.349Z,20.00
2018-09-09T20:00:42.098Z,19.90
2018-09-09T20:03:09.881Z,19.60
2018-09-09T20:05:37.665Z,19.80
2018-09-09T20:08:05.425Z,19.70
2018-09-09T20:10:34.026Z,19.40
2018-09-09T20:13:01.812Z,19.40
2018-09-09T20:15:29.620Z,19.80
2018-09-09T20:17:57.361Z,19.30
2018-09-09T20:20:25.360Z,19.60
2018-09-09T20:22:53.118Z,19.50
2018-09-09T20:25:20.874Z,19.50
2018-09-09T20:27:48.641Z,19.60
2018-09-09T20:30:16.432Z,19.70
2018-09-09T20:32:44.223Z,19.50
2018-09-09T20:35:11.964Z,19.40
2018-09-09T20:37:40.057Z,19.20
2018-09-09T20:40:07.890Z,19.20
2018-09-09T20:42:35.655Z,19.10
2018-09-09T20:45:03.537Z,19.00
2018-09-09T20:47:31.316Z,18.80
2018-09-09T20:49:59.097Z,18.80
2018-09-09T20:52:26.853Z,19.00
2018-09-09T20:54:54.673Z,18.80
2018-09-09T20:57:22.418Z,19.10
2018-09-09T20:59:50.182Z,19.10
2018-09-09T21:02:17.915Z,19.20
2018-09-09T21:04:45.693Z,18.80
2018-09-09T21:07:13.456Z,18.70
2018-09-09T21:09:41.262Z,18.60
2018-09-09T21:12:09.001Z,18.90
2018-09-09T21:14:36.798Z,18.80
2018-09-09T21:17:04.569Z,18.70
2018-09-09T21:19:32.451Z,18.80
2018-09-09T21:22:00.217Z,19.10
2018-09-09T21:24:28.004Z,19.00
2018-09-09T21:26:55.796Z,19.30
2018-09-09T21:29:23.576Z,19.20
2018-09-09T21:31:51.399Z,19.50
2018-09-09T21:34:19.144Z,19.40
2018-09-09T21:36:47.011Z,19.40
2018-09-09T21:39:14.807Z,19.60
2018-09-09T21:41:42.593Z,19.70
2018-09-09T21:44:10.357Z,19.60
2018-09-09T21:46:38.163Z,19.60
2018-09-09T21:49:06.148Z,19.50
2018-09-09T21:51:33.982Z,19.40
2018-09-09T21:54:01.741Z,19.40
2018-09-09T21:56:29.511Z,19.30
2018-09-09T21:58:57.266Z,19.50
2018-09-09T22:01:30.708Z,19.30
2018-09-09T22:03:58.849Z,19.30
2018-09-09T22:06:27.327Z,19.20
2018-09-09T22:08:55.733Z,19.20
2018-09-09T22:11:23.867Z,19.50
2018-09-09T22:13:51.766Z,19.40
2018-09-09T22:16:19.564Z,19.40
2018-09-09T22:18:47.406Z,19.20
2018-09-09T22:21:15.244Z,19.10
2018-09-09T22:23:43.033Z,19.30
2018-09-09T22:26:10.792Z,19.10
2018-09-09T22:28:38.557Z,19.20
2018-09-09T22:31:06.333Z,19.00
2018-09-09T22:33:34.083Z,19.00
2018-09-09T22:36:01.864Z,18.90
2018-09-09T22:38:29.601Z,18.70
2018-09-09T22:40:57.381Z,18.80
2018-09-09T22:43:25.112Z,18.60
2018-09-09T22:45:57.694Z,18.90
2018-09-09T22:48:25.675Z,18.60
2018-09-09T22:50:53.461Z,18.60
2018-09-09T22:53:21.259Z,18.60
2018-09-09T22:55:49.045Z,18.80
2018-09-09T22:58:16.821Z,18.90
2018-09-09T23:00:44.600Z,18.60
2018-09-09T23:03:12.365Z,18.50
2018-09-09T23:05:40.139Z,18.60
2018-09-09T23:08:07.905Z,18.40
2018-09-09T23:10:35.725Z,18.80
2018-09-09T23:13:03.517Z,18.50
2018-09-09T23:15:31.388Z,18.80
2018-09-09T23:17:59.158Z,18.50
2018-09-09T23:20:26.941Z,18.40
2018-09-09T23:22:54.735Z,18.80
2018-09-09T23:25:22.835Z,18.20
2018-09-09T23:27:50.612Z,18.30
2018-09-09T23:30:18.366Z,18.40
2018-09-09T23:32:46.457Z,18.30
2018-09-09T23:35:14.196Z,18.40
2018-09-09T23:37:42.316Z,18.40
2018-09-09T23:40:10.058Z,18.40
2018-09-09T23:42:37.785Z,18.00
2018-09-09T23:45:05.708Z,18.10
2018-09-09T23:47:33.839Z,18.20
2018-09-09T23:50:01.584Z,18.00
2018-09-09T23:52:29.447Z,18.30
2018-09-09T23:54:57.176Z,18.20
2018-09-09T23:57:24.902Z,18.30
2018-09-09T23:59:52.671Z,18.30
